createdAt,value
2019-01-21T00:04:00.003Z,99.90
2019-01-21T00:09:06.183Z,99.90
2019-01-21T00:14:10.384Z,99.90
2019-01-21T00:19:14.568Z,99.90
2019-01-21T00:24:18.782Z,99.90
2019-01-21T00:29:23.031Z,99.90
2019-01-21T00:34:27.247Z,99.90
2019-01-21T00:39:31.600Z,99.90
2019-01-21T00:44:35.800Z,99.90
2019-01-21T00:49:40.288Z,99.90
2019-01-21T00:54:44.485Z,99.90
2019-01-21T00:59:48.779Z,99.90
2019-01-21T01:04:52.996Z,99.90
2019-01-21T01:09:57.283Z,99.90
2019-01-21T01:15:01.488Z,99.90
2019-01-21T01:20:09.370Z,99.90
2019-01-21T01:25:13.736Z,99.90
2019-01-21T01:30:18.338Z,99.90
2019-01-21T01:35:22.546Z,99.90
2019-01-21T01:40:26.787Z,99.90
2019-01-21T01:45:31.093Z,99.90
2019-01-21T01:50:35.350Z,99.90
2019-01-21T01:55:39.537Z,99.90
2019-01-21T02:00:43.736Z,99.90
2019-01-21T02:05:48.090Z,99.90
2019-01-21T02:10:52.648Z,99.90
2019-01-21T02:15:56.903Z,99.90
2019-01-21T02:21:05.207Z,99.90
2019-01-21T02:26:23.979Z,99.90
2019-01-21T02:32:07.760Z,99.90
2019-01-21T02:37:53.317Z,99.90
2019-01-21T02:43:22.910Z,99.90
2019-01-21T02:48:52.351Z,99.90
2019-01-21T02:54:23.647Z,99.90
2019-01-21T03:00:21.151Z,99.90
2019-01-21T03:06:12.059Z,99.90
2019-01-21T03:11:38.648Z,99.90
2019-01-21T03:17:20.842Z,99.90
2019-01-21T03:22:58.143Z,99.90
2019-01-21T03:28:45.876Z,99.90
2019-01-21T03:34:14.145Z,99.90
2019-01-21T03:39:49.712Z,99.90
2019-01-21T03:45:40.904Z,99.90
2019-01-21T03:51:08.697Z,99.90
2019-01-21T03:56:24.186Z,99.90
2019-01-21T04:01:54.326Z,99.90
2019-01-21T04:07:10.235Z,99.90
2019-01-21T04:12:43.439Z,99.90
2019-01-21T04:18:47.216Z,99.90
2019-01-21T04:24:34.024Z,99.90
2019-01-21T04:30:33.354Z,99.90
2019-01-21T04:35:53.336Z,99.90
2019-01-21T04:41:16.037Z,99.90
2019-01-21T04:47:13.398Z,99.90
2019-01-21T04:52:44.863Z,99.90
2019-01-21T04:58:18.972Z,99.90
2019-01-21T05:04:10.687Z,99.90
2019-01-21T05:09:46.665Z,99.90
2019-01-21T05:15:30.076Z,99.90
2019-01-21T05:21:18.454Z,99.90
2019-01-21T05:27:11.658Z,99.90
2019-01-21T05:32:57.892Z,99.90
2019-01-21T05:38:17.661Z,99.90
2019-01-21T05:43:59.097Z,99.90
2019-01-21T05:49:51.165Z,99.90
2019-01-21T05:55:36.579Z,99.90
2019-01-21T06:01:34.287Z,99.90
2019-01-21T06:07:00.855Z,99.90
2019-01-21T06:12:33.643Z,99.90
2019-01-21T06:18:07.796Z,99.90
2019-01-21T06:24:20.334Z,99.90
2019-01-21T06:29:43.560Z,99.90
2019-01-21T06:35:21.244Z,99.90
2019-01-21T06:40:59.695Z,99.90
2019-01-21T06:46:30.188Z,99.90
2019-01-21T06:52:08.940Z,99.90
2019-01-21T06:57:39.239Z,99.90
2019-01-21T07:03:17.262Z,99.90
2019-01-21T07:08:50.847Z,99.90
2019-01-21T07:14:14.279Z,99.90
2019-01-21T07:19:29.610Z,99.90
2019-01-21T07:25:03.162Z,99.90
2019-01-21T07:30:49.279Z,99.90
2019-01-21T07:36:46.843Z,99.90
2019-01-21T07:42:32.841Z,99.90
2019-01-21T07:48:20.514Z,99.90
2019-01-21T07:54:08.534Z,99.90
2019-01-21T08:00:11.971Z,99.90
2019-01-21T08:06:09.555Z,99.90
2019-01-21T08:12:04.538Z,99.90
2019-01-21T08:17:42.723Z,99.90
2019-01-21T08:23:17.194Z,99.90
2019-01-21T08:28:51.462Z,99.90
2019-01-21T08:34:20.612Z,99.90
2019-01-21T08:39:48.765Z,99.90
2019-01-21T08:45:58.311Z,99.90
2019-01-21T08:56:46.000Z,99.90
2019-01-21T09:02:36.120Z,99.90
2019-01-21T09:08:37.579Z,99.90
2019-01-21T09:14:23.919Z,99.90
2019-01-21T09:20:03.242Z,99.90
2019-01-21T09:25:35.484Z,99.90
2019-01-21T09:31:35.440Z,99.90
2019-01-21T09:36:51.900Z,99.90
2019-01-21T09:42:21.343Z,99.90
2019-01-21T09:47:23.993Z,99.90
2019-01-21T09:52:28.700Z,99.90
2019-01-21T09:57:33.459Z,99.90
2019-01-21T10:02:49.275Z,99.90
2019-01-21T10:08:26.953Z,99.90
2019-01-21T10:14:14.454Z,99.90
2019-01-21T10:20:02.679Z,99.90
2019-01-21T10:25:51.001Z,99.90
2019-01-21T10:31:15.852Z,99.90
2019-01-21T10:36:35.111Z,99.90
2019-01-21T10:41:53.175Z,99.90
2019-01-21T10:47:25.709Z,99.90
2019-01-21T10:53:26.587Z,99.90
2019-01-21T10:58:55.537Z,99.90
2019-01-21T11:04:33.823Z,92.70
2019-01-21T11:10:09.195Z,88.50
2019-01-21T11:15:25.048Z,96.60
2019-01-21T11:21:13.128Z,97.00
2019-01-21T11:26:53.052Z,96.00
2019-01-21T11:32:33.055Z,96.20
2019-01-21T11:38:17.524Z,89.60
2019-01-21T11:43:48.837Z,90.70
2019-01-21T11:49:55.431Z,68.80
2019-01-21T11:55:36.772Z,68.60
2019-01-21T12:01:24.047Z,67.40
2019-01-21T12:06:44.307Z,77.20
2019-01-21T12:12:19.125Z,82.80
2019-01-21T12:17:49.311Z,86.20
2019-01-21T12:23:33.526Z,91.40
2019-01-21T12:28:51.387Z,91.40
2019-01-21T12:34:06.071Z,90.80
2019-01-21T12:39:54.752Z,95.80
2019-01-21T12:45:45.908Z,97.70
2019-01-21T12:51:19.092Z,97.40
2019-01-21T12:57:03.559Z,99.10
2019-01-21T13:02:36.999Z,98.10
2019-01-21T13:08:22.307Z,94.20
2019-01-21T13:13:55.875Z,94.90
2019-01-21T13:19:42.931Z,97.90
2019-01-21T13:25:23.936Z,99.90
2019-01-21T13:31:12.051Z,99.90
2019-01-21T13:36:47.939Z,99.90
2019-01-21T13:42:16.956Z,99.90
2019-01-21T13:47:57.300Z,99.90
2019-01-21T13:53:57.723Z,99.90
2019-01-21T13:59:58.403Z,99.90
2019-01-21T14:05:12.977Z,99.90
2019-01-21T14:11:03.176Z,99.90
2019-01-21T14:16:42.431Z,99.90
2019-01-21T14:22:16.908Z,99.90
2019-01-21T14:28:07.913Z,99.90
2019-01-21T14:33:32.913Z,99.90
2019-01-21T14:39:17.038Z,99.90
2019-01-21T14:44:35.439Z,99.90
2019-01-21T14:50:02.724Z,99.90
2019-01-21T14:55:30.684Z,99.90
2019-01-21T15:01:09.961Z,99.90
2019-01-21T15:06:41.870Z,99.90
2019-01-21T15:12:27.119Z,99.90
2019-01-21T15:18:08.221Z,99.90
2019-01-21T15:23:41.182Z,99.90
2019-01-21T15:29:21.462Z,99.90
2019-01-21T15:35:09.384Z,99.90
2019-01-21T15:41:00.532Z,99.90
2019-01-21T15:46:46.473Z,99.90
2019-01-21T15:52:16.436Z,99.90
2019-01-21T15:57:43.711Z,99.90
2019-01-21T16:03:16.996Z,99.90
2019-01-21T16:09:02.346Z,99.90
2019-01-21T16:14:29.575Z,99.90
2019-01-21T16:20:00.781Z,99.90
2019-01-21T16:25:41.795Z,99.90
2019-01-21T16:31:14.850Z,99.90
2019-01-21T16:37:03.602Z,99.90
2019-01-21T16:42:15.894Z,99.90
2019-01-21T16:47:20.111Z,99.90
2019-01-21T16:52:24.368Z,99.90
2019-01-21T16:57:28.558Z,99.90
2019-01-21T17:02:32.821Z,99.90
2019-01-21T17:07:37.076Z,99.90
2019-01-21T17:12:41.298Z,99.90
2019-01-21T17:17:45.569Z,99.90
2019-01-21T17:22:49.830Z,99.90
2019-01-21T17:27:54.032Z,99.90
2019-01-21T17:32:58.233Z,99.90
2019-01-21T17:38:02.532Z,99.90
2019-01-21T17:43:06.882Z,99.90
2019-01-21T17:48:11.156Z,99.90
2019-01-21T17:53:15.378Z,99.90
2019-01-21T17:58:19.683Z,99.90
2019-01-21T18:03:24.062Z,99.90
2019-01-21T18:08:28.435Z,99.90
2019-01-21T18:13:32.724Z,99.90
2019-01-21T18:18:36.981Z,99.90
2019-01-21T18:23:41.811Z,99.90
2019-01-21T18:28:46.186Z,99.90
2019-01-21T18:33:50.528Z,99.90
2019-01-21T18:38:54.888Z,99.90
2019-01-21T18:43:59.084Z,99.90
2019-01-21T18:49:03.359Z,99.90
2019-01-21T18:54:07.748Z,99.90
2019-01-21T18:59:12.078Z,99.90
